Tuesday, February 20, 2018, 3:28 PM GMT
Back to Local

CYOY, Valcartier Airport

Location: , , Canada Lat: 46.9
Local Time: 3:28 PM GMT (15:28 GMT) Lon: -71.5
Time Zone: GMT Elev: 551 ft

Show me the last for .
Show Decoded

2018-02-20 15:00 METAR CYOY 201500Z 09005KT 6SM -SN BR BKN013 OVC025 01/M02 A3024 RMK SF6SC2
                 DA-1297FT SLP251 =
2018-02-20 14:45 METAR CYOY 201445Z 09006KT 5SM -SN BR BKN013 OVC035 01/M02 A3024 RMK SF6SC2
                 DA-1309FT SLP251 =
2018-02-20 14:00 METAR CYOY 201400Z 10006KT 3SM -SNPL BR OVC010 01/M02 A3024 RMK NS8 DA-1297FT
                 FST STFD OBS SLP251 =
2018-02-20 13:39 METAR CYOY 201339Z AUTO 09007G15KT 070V130 9SM -SN OVC014 01/M01 A3025 =
2018-02-20 13:00 METAR CYOY 201300Z AUTO 12003KT 090V160 8SM OVC012 01/M01 A3024 RMK SLP250 =
2018-02-20 12:51 METAR CYOY 201251Z AUTO 12005KT 080V160 7SM OVC010 01/M01 A3024 =
2018-02-20 12:00 METAR CYOY 201200Z AUTO 12005KT 6SM OVC008 01/M01 A3023 RMK SLP247 =
2018-02-20 11:38 METAR CYOY 201138Z AUTO 11004KT 090V150 4SM OVC007 OVC020 01/M01 A3023 =
2018-02-20 11:00 METAR CYOY 201100Z AUTO 07002KT 1 3/4SM FEW003 OVC008 01/M01 A3022 RMK SLP244 =
2018-02-20 10:49 METAR CYOY 201049Z AUTO 07002KT 2 1/4SM FEW003 OVC009 00/M01 A3023 =
2018-02-20 10:47 METAR CYOY 201047Z AUTO 10003KT 050V120 3SM FEW003 OVC009 01/M01 A3023 =
2018-02-20 10:06 METAR CYOY 201006Z AUTO 00000KT 3SM BKN003 OVC008 OVC013 01/M01 A3022 =
2018-02-20 10:03 METAR CYOY 201003Z AUTO 00000KT 3SM SCT003 OVC008 OVC013 00/M01 A3022 =
2018-02-20 10:01 METAR CYOY 201001Z AUTO 00000KT 3SM OVC003 01/M01 A3022 =
2018-02-20 10:00 METAR CYOY 201000Z AUTO 00000KT 3SM OVC004 01/M01 A3022 RMK SLP243 =
2018-02-20 09:51 METAR CYOY 200951Z AUTO 00000KT 3SM OVC004 01/M01 A3021 =
2018-02-20 09:47 METAR CYOY 200947Z AUTO 00000KT 3SM OVC005 OVC037 00/M01 A3021 =
2018-02-20 09:46 METAR CYOY 200946Z AUTO 00000KT 3SM -SN OVC005 OVC037 01/M01 A3021 =
2018-02-20 09:41 METAR CYOY 200941Z AUTO 00000KT 3SM -SN OVC003 OVC037 00/M01 A3021 =
2018-02-20 09:36 METAR CYOY 200936Z AUTO 00000KT 3SM -SN BKN004 OVC009 OVC033 00/M01 A3021 RMK
                 ICG PAST HR =
2018-02-20 09:24 METAR CYOY 200924Z AUTO 00000KT 2 1/2SM -SN OVC004 OVC028 00/M01 A3020 RMK ICG
                 PAST HR =
2018-02-20 09:00 METAR CYOY 200900Z AUTO 00000KT 2 1/4SM -SN OVC006 OVC014 OVC028 00/M01 A3019
                 RMK ICG PAST HR SLP232 =
2018-02-20 08:57 METAR CYOY 200857Z AUTO 00000KT 2 1/4SM -SN BKN007 OVC028 00/M01 A3019 RMK ICG
                 PAST HR =
2018-02-20 08:46 METAR CYOY 200846Z AUTO 00000KT 1 3/4SM SN FEW003 OVC028 00/M01 A3019 RMK ICG
                 PAST HR =
2018-02-20 08:34 METAR CYOY 200834Z AUTO 00000KT 1 3/4SM SN BKN003 BKN025 OVC028 00/M01 A3019 RMK
                 ICG =
2018-02-20 08:00 METAR CYOY 200800Z AUTO 00000KT 1 5/8SM -SN FEW003 OVC025 OVC067 OVC074 00/M01
                 A3019 RMK PCPN 1.0MM PAST HR SLP231 =
2018-02-20 07:59 METAR CYOY 200759Z AUTO 00000KT 1 5/8SM -SN FEW003 OVC025 OVC065 OVC074 00/M01
                 A3019 =
2018-02-20 07:57 METAR CYOY 200757Z AUTO 00000KT 1 3/4SM FEW003 OVC025 OVC065 OVC074 00/M01 A3019
                 RMK ICG PAST HR =
2018-02-20 07:40 METAR CYOY 200740Z AUTO 00000KT 2SM -SN FEW003 OVC025 OVC035 OVC065 00/M01 A3019
                 RMK ICG PAST HR =
2018-02-20 07:34 METAR CYOY 200734Z AUTO 00000KT 1 3/4SM -SN BKN003 OVC023 OVC065 OVC074 00/M01
                 A3018 RMK ICG PAST HR =
2018-02-20 07:31 METAR CYOY 200731Z AUTO 00000KT 1 5/8SM -SN BKN004 OVC023 OVC065 OVC074 00/M01
                 A3018 RMK ICG PAST HR =
2018-02-20 07:16 METAR CYOY 200716Z AUTO 00000KT 1 3/4SM -SN SCT007 OVC018 OVC065 OVC074 00/M01
                 A3018 RMK ICG PAST HR =
2018-02-20 07:05 METAR CYOY 200705Z AUTO 00000KT 1 1/2SM -SN BKN008 BKN065 BKN074 00/M01 A3018
                 RMK ICG PAST HR =
2018-02-20 07:00 METAR CYOY 200700Z AUTO 00000KT 1 1/4SM -SN BKN007 BKN065 BKN074 00/M01 A3018
                 RMK ICG PAST HR SLP227 =
2018-02-20 06:55 METAR CYOY 200655Z AUTO 00000KT 1 1/4SM -SN VV005 00/M01 A3018 RMK ICG =
2018-02-20 06:53 METAR CYOY 200653Z AUTO 00000KT 3/4SM SN VV005 00/M01 A3017 RMK ICG =
2018-02-20 06:44 METAR CYOY 200644Z AUTO 00000KT 3/4SM SN VV003 00/M01 A3017 RMK ICG =
2018-02-20 06:41 METAR CYOY 200641Z AUTO 00000KT 3/4SM SN VV005 00/M01 A3018 RMK ICG =
2018-02-20 06:32 METAR CYOY 200632Z AUTO 00000KT 3/4SM SN VV004 00/M01 A3018 RMK ICG =
2018-02-20 06:24 METAR CYOY 200624Z AUTO 00000KT 3/4SM SN VV002 00/M01 A3018 RMK ICG =
2018-02-20 06:20 METAR CYOY 200620Z AUTO 00000KT 1SM SN VV002 00/M01 A3019 RMK ICG =
2018-02-20 06:17 METAR CYOY 200617Z AUTO 00000KT 3/4SM SN VV002 00/M01 A3019 RMK ICG =
2018-02-20 06:06 METAR CYOY 200606Z AUTO 00000KT 3/4SM -FZRA VV002 00/M01 A3018 RMK ICG =
2018-02-20 06:02 METAR CYOY 200602Z AUTO 00000KT 3/4SM -FZRA VV008 00/M01 A3019 RMK ICG =
2018-02-20 06:00 METAR CYOY 200600Z AUTO 00000KT 3/4SM SN VV008 00/M01 A3018 RMK ICG PCPN 0.5MM
                 PAST HR SLP230 =
2018-02-20 05:46 METAR CYOY 200546Z AUTO 00000KT 3/4SM SN VV009 00/M01 A3018 =
2018-02-20 05:45 METAR CYOY 200545Z AUTO 00000KT 1SM SN VV009 00/M01 A3018 =
2018-02-20 05:39 METAR CYOY 200539Z AUTO 00000KT 1 1/4SM SN OVC014 M00/M02 A3018 =
2018-02-20 05:34 METAR CYOY 200534Z AUTO 00000KT 2 1/4SM SN OVC014 00/M01 A3017 =
2018-02-20 05:29 METAR CYOY 200529Z AUTO 00000KT 2 1/2SM -SN OVC016 00/M01 A3018 =
2018-02-20 05:02 METAR CYOY 200502Z AUTO 00000KT 2 1/2SM OVC018 OVC040 00/M02 A3017 =
2018-02-20 05:00 METAR CYOY 200500Z AUTO 00000KT 2 1/2SM VV010 00/M01 A3017 RMK SLP226 =
2018-02-20 04:57 METAR CYOY 200457Z AUTO 00000KT 2 1/2SM VV010 00/M01 A3017 =
2018-02-20 04:51 METAR CYOY 200451Z AUTO 00000KT 3SM VV010 00/M01 A3016 =
2018-02-20 04:50 METAR CYOY 200450Z AUTO 00000KT 3SM VV008 00/M01 A3016 =
2018-02-20 04:47 METAR CYOY 200447Z AUTO 00000KT 3SM -SN VV008 00/M01 A3016 =
2018-02-20 04:26 METAR CYOY 200426Z AUTO 00000KT 3SM OVC008 00/M01 A3016 =
2018-02-20 04:24 METAR CYOY 200424Z AUTO 00000KT 3SM -SN OVC008 OVC016 00/M01 A3017 =
2018-02-20 04:23 METAR CYOY 200423Z AUTO 00000KT 3SM OVC008 00/M01 A3017 =
2018-02-20 04:00 METAR CYOY 200400Z AUTO 00000KT 3SM -SN OVC007 00/M02 A3018 RMK SLP228 =
2018-02-20 03:42 METAR CYOY 200342Z AUTO 00000KT 3SM -SN OVC007 00/M01 A3019 =
2018-02-20 03:31 METAR CYOY 200331Z AUTO 00000KT 3SM OVC006 00/M01 A3019 =
2018-02-20 03:00 METAR CYOY 200300Z AUTO 00000KT 3SM -SN OVC006 01/M01 A3017 RMK SLP225 =
2018-02-20 02:35 METAR CYOY 200235Z AUTO 00000KT 3SM OVC005 01/M01 A3017 =
2018-02-20 02:21 METAR CYOY 200221Z AUTO 00000KT 3SM OVC003 01/M01 A3017 =
2018-02-20 02:01 METAR CYOY 200201Z AUTO 00000KT 3SM -SN OVC004 01/M01 A3017 =
2018-02-20 02:00 METAR CYOY 200200Z AUTO 00000KT 2 1/2SM -SN OVC004 01/M01 A3017 RMK SLP227 =
2018-02-20 01:44 METAR CYOY 200144Z AUTO 00000KT 2 1/2SM -SN OVC004 01/M01 A3017 =
2018-02-20 01:42 METAR CYOY 200142Z AUTO 00000KT 2 1/2SM -SN OVC005 01/M01 A3017 =
2018-02-20 01:13 METAR CYOY 200113Z AUTO 22003KT 200V270 6SM -SN OVC009 01/M02 A3018 =
2018-02-20 01:00 METAR CYOY 200100Z AUTO 25004KT 230V290 8SM -SN OVC014 02/M02 A3017 RMK SLP230 =
2018-02-20 00:57 METAR CYOY 200057Z AUTO 25004KT 230V290 9SM -SN OVC014 02/M02 A3018 =
2018-02-20 00:27 METAR CYOY 200027Z 27004KT 220V300 4SM -SN BR OVC024 02/M04 A3017 RMK SC8
                 DA-1152FT LAST STFD OBS/NEXT 201400 UTC SLP229 =
2018-02-20 00:00 METAR CYOY 200000Z 00000KT 6SM BR OVC030 00/M04 A3017 RMK SC8 DA-1327FT SLP228 =
2018-02-19 23:00 METAR CYOY 192300Z 00000KT 15SM OVC046 01/M03 A3015 RMK SC8 DA-1240FT SLP221 =
2018-02-19 22:00 METAR CYOY 192200Z 00000KT 15SM OVC046 02/M04 A3015 RMK SC8 DA-1141FT SLP222 =
2018-02-19 21:00 METAR CYOY 192100Z 00000KT 15SM OVC044 04/M06 A3016 RMK SC8 DA-888FT SLP223 =
2018-02-19 20:00 METAR CYOY 192000Z 27004KT 220V290 15SM OVC042 04/M07 A3015 RMK SC8 DA-891FT SUN
                 DIMLY VISBL SLP220 =
2018-02-19 19:00 METAR CYOY 191900Z 22005KT 15SM FEW045 SCT070 BKN200 04/M07 A3015 RMK SC2AC1CI2
                 DA-854FT SLP222 =
2018-02-19 18:00 METAR CYOY 191800Z 27005KT 15SM BKN047 OVC083 03/M07 A3018 RMK SC7AC1 DA-1076FT
                 SLP233 =
2018-02-19 17:00 METAR CYOY 191700Z 22010KT 15SM FEW068 BKN220 02/M08 A3021 RMK AC2CI4 DA-1188FT
                 SLP241 =
2018-02-19 16:00 METAR CYOY 191600Z 21003KT 15SM FEW070 FEW220 01/M08 A3023 RMK AC1CI2 DA-1325FT
                 SLP251 =

Support USWX by starting your Amazon purchase here.